createdAt,value
2018-11-03T00:01:39.004Z,26.40
2018-11-03T00:04:10.089Z,26.40
2018-11-03T00:06:41.549Z,26.50
2018-11-03T00:09:12.664Z,26.40
2018-11-03T00:11:44.460Z,26.40
2018-11-03T00:14:15.928Z,26.40
2018-11-03T00:16:48.729Z,26.40
2018-11-03T00:19:20.057Z,26.50
2018-11-03T00:21:51.597Z,26.40
2018-11-03T00:24:22.896Z,26.40
2018-11-03T00:26:54.425Z,26.40
2018-11-03T00:29:25.692Z,26.40
2018-11-03T00:31:57.608Z,26.40
2018-11-03T00:34:28.758Z,26.30
2018-11-03T00:37:00.544Z,26.30
2018-11-03T00:39:31.958Z,26.30
2018-11-03T00:42:03.473Z,26.30
2018-11-03T00:44:34.848Z,26.30
2018-11-03T00:47:07.969Z,26.30
2018-11-03T00:49:39.374Z,26.20
2018-11-03T00:52:10.885Z,26.10
2018-11-03T00:54:42.153Z,26.10
2018-11-03T00:57:13.589Z,26.20
2018-11-03T00:59:44.941Z,26.20
2018-11-03T01:02:16.910Z,26.20
2018-11-03T01:04:47.925Z,26.20
2018-11-03T01:07:19.611Z,26.20
2018-11-03T01:09:50.680Z,26.20
2018-11-03T01:12:22.272Z,26.20
2018-11-03T01:14:53.306Z,26.20
2018-11-03T01:17:25.852Z,26.20
2018-11-03T01:19:57.133Z,26.00
2018-11-03T01:22:29.275Z,26.10
2018-11-03T01:25:00.401Z,26.00
2018-11-03T01:27:31.983Z,26.10
2018-11-03T01:30:03.200Z,26.00
2018-11-03T01:32:34.739Z,26.00
2018-11-03T01:35:06.599Z,26.10
2018-11-03T01:37:38.448Z,26.10
2018-11-03T01:40:10.258Z,26.10
2018-11-03T01:42:42.166Z,26.10
2018-11-03T01:45:13.349Z,26.00
2018-11-03T01:47:45.108Z,26.00
2018-11-03T01:50:16.293Z,26.00
2018-11-03T01:52:47.724Z,26.00
2018-11-03T01:55:19.614Z,26.00
2018-11-03T01:57:51.216Z,25.90
2018-11-03T02:00:22.408Z,25.90
2018-11-03T02:02:53.981Z,25.90
2018-11-03T02:05:25.432Z,25.90
2018-11-03T02:07:57.590Z,26.00
2018-11-03T02:10:28.895Z,25.90
2018-11-03T02:13:00.474Z,25.90
2018-11-03T02:15:31.729Z,25.90
2018-11-03T02:18:04.153Z,25.90
2018-11-03T02:20:35.378Z,25.90
2018-11-03T02:23:07.168Z,25.80
2018-11-03T02:25:39.924Z,25.80
2018-11-03T02:28:11.645Z,25.80
2018-11-03T02:30:43.245Z,25.80
2018-11-03T02:33:14.748Z,25.80
2018-11-03T02:35:46.395Z,25.80
2018-11-03T02:38:18.886Z,25.90
2018-11-03T02:40:50.401Z,25.80
2018-11-03T02:43:21.824Z,25.80
2018-11-03T02:45:53.021Z,25.90
2018-11-03T02:48:26.206Z,26.00
2018-11-03T02:50:57.545Z,26.00
2018-11-03T02:53:28.765Z,26.10
2018-11-03T02:55:59.903Z,26.10
2018-11-03T02:58:31.224Z,26.10
2018-11-03T03:01:04.243Z,26.10
2018-11-03T03:03:35.661Z,26.20
2018-11-03T03:06:06.865Z,26.20
2018-11-03T03:08:38.213Z,26.30
2018-11-03T03:11:09.525Z,26.40
2018-11-03T03:13:41.592Z,26.40
2018-11-03T03:16:12.902Z,26.50
2018-11-03T03:18:44.977Z,26.60
2018-11-03T03:21:16.368Z,26.70
2018-11-03T03:23:47.860Z,27.00
2018-11-03T03:26:19.259Z,27.90
2018-11-03T03:28:50.756Z,28.50
2018-11-03T03:31:22.112Z,28.70
2018-11-03T03:33:53.397Z,28.20
2018-11-03T03:36:24.648Z,27.90
2018-11-03T03:38:56.012Z,28.10
2018-11-03T03:41:26.656Z,28.00
2018-11-03T03:43:57.573Z,27.90
2018-11-03T03:46:28.284Z,28.20
2018-11-03T03:48:59.517Z,28.10
2018-11-03T03:51:30.143Z,28.20
2018-11-03T03:54:01.821Z,28.10
2018-11-03T03:56:32.876Z,28.20
2018-11-03T03:59:04.887Z,28.30
2018-11-03T04:01:36.281Z,28.30
2018-11-03T04:04:07.796Z,28.50
2018-11-03T04:06:38.993Z,28.60
2018-11-03T04:09:11.321Z,28.70
2018-11-03T04:11:42.754Z,28.70
2018-11-03T04:14:14.190Z,28.80
2018-11-03T04:16:45.629Z,28.90
2018-11-03T04:19:18.313Z,28.90
2018-11-03T04:21:49.688Z,28.80
2018-11-03T04:24:21.844Z,28.90
2018-11-03T04:26:53.039Z,28.90
2018-11-03T04:29:24.905Z,29.10
2018-11-03T04:31:56.984Z,29.30
2018-11-03T04:34:28.781Z,29.20
2018-11-03T04:37:01.058Z,29.10
2018-11-03T04:39:32.448Z,29.10
2018-11-03T04:42:04.434Z,29.30
2018-11-03T04:44:35.994Z,29.50
2018-11-03T04:47:07.227Z,29.60
2018-11-03T04:49:38.791Z,29.50
2018-11-03T04:52:09.511Z,29.60
2018-11-03T04:54:40.605Z,29.50
2018-11-03T04:57:11.261Z,29.70
2018-11-03T04:59:42.260Z,29.90
2018-11-03T05:02:13.972Z,29.70
2018-11-03T05:04:45.916Z,29.70
2018-11-03T05:07:16.745Z,29.60
2018-11-03T05:09:48.042Z,29.80
2018-11-03T05:12:19.028Z,30.10
2018-11-03T05:14:50.678Z,30.50
2018-11-03T05:17:21.808Z,30.60
2018-11-03T05:19:54.865Z,30.10
2018-11-03T05:22:25.940Z,30.40
2018-11-03T05:24:57.693Z,30.50
2018-11-03T05:27:29.099Z,30.60
2018-11-03T05:30:00.926Z,30.70
2018-11-03T05:32:32.160Z,30.70
2018-11-03T05:35:03.522Z,30.20
2018-11-03T05:37:34.913Z,30.40
2018-11-03T05:40:06.803Z,30.60
2018-11-03T05:42:38.072Z,31.00
2018-11-03T05:45:09.865Z,31.00
2018-11-03T05:47:41.298Z,31.20
2018-11-03T05:50:12.730Z,31.20
2018-11-03T05:52:44.236Z,31.00
2018-11-03T05:55:16.240Z,31.30
2018-11-03T05:57:47.417Z,31.40
2018-11-03T06:00:19.350Z,31.60
2018-11-03T06:02:50.294Z,31.60
2018-11-03T06:05:21.883Z,31.60
2018-11-03T06:07:53.034Z,31.70
2018-11-03T06:10:24.633Z,31.00
2018-11-03T06:12:56.078Z,30.80
2018-11-03T06:15:27.597Z,31.60
2018-11-03T06:17:59.016Z,32.10
2018-11-03T06:20:32.653Z,32.30
2018-11-03T06:23:03.844Z,32.30
2018-11-03T06:25:35.565Z,32.40
2018-11-03T06:28:06.775Z,32.20
2018-11-03T06:30:38.428Z,32.30
2018-11-03T06:33:09.810Z,32.10
2018-11-03T06:35:41.373Z,32.10
2018-11-03T06:38:12.765Z,32.20
2018-11-03T06:40:44.320Z,32.20
2018-11-03T06:43:15.480Z,32.30
2018-11-03T06:45:47.260Z,32.10
2018-11-03T06:48:18.581Z,32.40
2018-11-03T06:50:50.144Z,32.60
2018-11-03T06:53:21.284Z,32.60
2018-11-03T06:55:52.868Z,32.60
2018-11-03T06:58:24.061Z,32.80
2018-11-03T07:00:55.307Z,33.30
2018-11-03T07:03:26.327Z,33.10
2018-11-03T07:05:57.861Z,33.10
2018-11-03T07:08:29.572Z,33.20
2018-11-03T07:11:00.838Z,33.30
2018-11-03T07:13:31.750Z,33.40
2018-11-03T07:16:04.672Z,32.80
2018-11-03T07:18:35.658Z,32.90
2018-11-03T07:21:08.932Z,33.50
2018-11-03T07:23:39.801Z,33.60
2018-11-03T07:26:11.057Z,33.40
2018-11-03T07:28:42.772Z,34.00
2018-11-03T07:31:13.978Z,34.20
2018-11-03T07:33:44.893Z,34.30
2018-11-03T07:36:16.206Z,34.00
2018-11-03T07:38:47.065Z,33.90
2018-11-03T07:41:18.332Z,33.40
2018-11-03T07:43:49.202Z,33.20
2018-11-03T07:46:20.732Z,33.30
2018-11-03T07:48:51.760Z,33.40
2018-11-03T07:51:22.910Z,33.60
2018-11-03T07:53:53.926Z,33.40
2018-11-03T07:56:25.746Z,33.50
2018-11-03T07:58:56.756Z,33.60
2018-11-03T08:01:28.210Z,33.60
2018-11-03T08:03:59.145Z,33.40
2018-11-03T08:06:30.400Z,33.10
2018-11-03T08:09:01.600Z,32.90
2018-11-03T08:11:32.942Z,33.20
2018-11-03T08:14:03.789Z,33.60
2018-11-03T08:16:34.925Z,33.70
2018-11-03T08:19:06.834Z,33.90
2018-11-03T08:21:38.916Z,33.80
2018-11-03T08:24:09.845Z,33.60
2018-11-03T08:26:41.281Z,33.60
2018-11-03T08:29:12.121Z,33.70
2018-11-03T08:31:44.015Z,33.70
2018-11-03T08:34:15.026Z,33.90
2018-11-03T08:36:46.007Z,33.90
2018-11-03T08:39:16.819Z,33.90
2018-11-03T08:41:48.037Z,34.00
2018-11-03T08:44:18.996Z,33.80
2018-11-03T08:46:50.376Z,33.80
2018-11-03T08:49:21.231Z,34.00
2018-11-03T08:51:52.356Z,33.90
2018-11-03T08:54:23.180Z,33.80
2018-11-03T08:56:54.383Z,33.80
2018-11-03T08:59:25.505Z,33.60
2018-11-03T09:01:57.020Z,33.80
2018-11-03T09:04:27.757Z,33.70
2018-11-03T09:06:59.041Z,33.50
2018-11-03T09:09:29.840Z,33.70
2018-11-03T09:12:01.351Z,33.90
2018-11-03T09:14:32.350Z,33.90
2018-11-03T09:17:04.093Z,34.00
2018-11-03T09:19:34.945Z,33.90
2018-11-03T09:22:07.229Z,33.80
2018-11-03T09:24:38.108Z,33.70
2018-11-03T09:27:09.301Z,33.60
2018-11-03T09:29:40.294Z,33.70
2018-11-03T09:32:11.466Z,33.90
2018-11-03T09:34:42.476Z,33.90
2018-11-03T09:37:13.669Z,33.70
2018-11-03T09:39:44.853Z,33.70
2018-11-03T09:42:16.044Z,33.70
2018-11-03T09:44:46.854Z,33.70
2018-11-03T09:47:17.943Z,33.60
2018-11-03T09:49:48.895Z,33.50
2018-11-03T09:52:20.123Z,33.60
2018-11-03T09:54:50.961Z,33.50
2018-11-03T09:57:22.021Z,33.70
2018-11-03T09:59:52.837Z,33.70
2018-11-03T10:02:24.224Z,33.80
2018-11-03T10:04:55.193Z,33.70
2018-11-03T10:07:27.465Z,33.70
2018-11-03T10:09:58.641Z,33.60
2018-11-03T10:12:30.196Z,33.50
2018-11-03T10:15:01.067Z,33.60
2018-11-03T10:17:32.356Z,33.60
2018-11-03T10:20:03.293Z,33.60
2018-11-03T10:22:36.664Z,33.70
2018-11-03T10:25:11.828Z,33.60
2018-11-03T10:27:43.618Z,33.50
2018-11-03T10:30:15.855Z,33.40
2018-11-03T10:32:47.388Z,33.50
2018-11-03T10:35:18.297Z,33.50
2018-11-03T10:37:49.395Z,33.50
2018-11-03T10:40:20.301Z,33.20
2018-11-03T10:42:51.629Z,33.40
2018-11-03T10:45:22.372Z,33.40
2018-11-03T10:47:53.777Z,33.40
2018-11-03T10:50:25.569Z,33.30
2018-11-03T10:52:56.945Z,33.40
2018-11-03T10:55:29.588Z,33.40
2018-11-03T10:58:00.564Z,33.30
2018-11-03T11:00:36.352Z,33.30
2018-11-03T11:03:12.337Z,33.10
2018-11-03T11:05:48.085Z,33.10
2018-11-03T11:08:24.327Z,33.10
2018-11-03T11:11:00.085Z,33.10
2018-11-03T11:13:32.545Z,33.10
2018-11-03T11:16:03.549Z,33.20
2018-11-03T11:18:34.631Z,33.20
2018-11-03T11:21:05.918Z,33.00
2018-11-03T11:23:39.169Z,32.90
2018-11-03T11:26:10.083Z,32.90
2018-11-03T11:28:41.400Z,32.70
2018-11-03T11:31:12.444Z,32.80
2018-11-03T11:33:43.848Z,32.90
2018-11-03T11:36:14.781Z,32.90
2018-11-03T11:38:47.011Z,32.80
2018-11-03T11:44:28.078Z,32.60
2018-11-03T11:46:59.353Z,32.60
2018-11-03T11:49:30.580Z,32.60
2018-11-03T11:52:01.562Z,32.60
2018-11-03T11:54:32.465Z,32.60
2018-11-03T11:57:03.161Z,32.60
2018-11-03T11:59:34.849Z,32.60
2018-11-03T12:02:06.192Z,32.60
2018-11-03T12:04:37.032Z,32.70
2018-11-03T12:07:07.795Z,32.60
2018-11-03T12:09:39.115Z,32.60
2018-11-03T12:12:09.800Z,32.60
2018-11-03T12:14:40.847Z,32.50
2018-11-03T12:17:11.654Z,32.40
2018-11-03T12:19:43.112Z,32.40
2018-11-03T12:22:13.833Z,32.30
2018-11-03T12:24:46.261Z,32.30
2018-11-03T12:27:17.177Z,32.30
2018-11-03T12:29:48.098Z,32.20
2018-11-03T12:32:18.829Z,32.20
2018-11-03T12:34:52.411Z,32.10
2018-11-03T12:37:23.494Z,32.00
2018-11-03T12:39:54.649Z,32.00
2018-11-03T12:42:25.652Z,32.00
2018-11-03T12:44:56.848Z,32.00
2018-11-03T12:47:27.771Z,32.00
2018-11-03T12:50:00.143Z,32.00
2018-11-03T12:52:32.128Z,32.00
2018-11-03T12:55:03.375Z,31.90
2018-11-03T12:57:34.384Z,31.80
2018-11-03T13:00:06.249Z,31.80
2018-11-03T13:02:37.190Z,31.80
2018-11-03T13:05:09.563Z,31.70
2018-11-03T13:07:41.614Z,31.60
2018-11-03T13:10:13.018Z,31.60
2018-11-03T13:12:44.133Z,31.50
2018-11-03T13:15:15.525Z,31.50
2018-11-03T13:17:46.491Z,31.50
2018-11-03T13:20:17.781Z,31.40
2018-11-03T13:22:48.807Z,31.30
2018-11-03T13:25:20.922Z,31.30
2018-11-03T13:27:51.725Z,31.30
2018-11-03T13:30:23.008Z,31.20
2018-11-03T13:32:54.000Z,31.10
2018-11-03T13:35:25.289Z,31.10
2018-11-03T13:37:57.242Z,31.10
2018-11-03T13:40:28.296Z,31.00
2018-11-03T13:42:59.212Z,31.00
2018-11-03T13:45:30.827Z,31.00
2018-11-03T13:48:02.862Z,30.90
2018-11-03T13:50:34.497Z,30.90
2018-11-03T13:53:05.523Z,30.80
2018-11-03T13:55:37.882Z,30.80
2018-11-03T13:58:08.946Z,30.70
2018-11-03T14:00:40.107Z,30.80
2018-11-03T14:03:10.865Z,30.70
2018-11-03T14:05:42.141Z,30.70
2018-11-03T14:08:13.645Z,30.70
2018-11-03T14:10:44.956Z,30.70
2018-11-03T14:13:15.888Z,30.60
2018-11-03T14:15:47.341Z,30.60
2018-11-03T14:18:18.382Z,30.50
2018-11-03T14:20:49.595Z,30.40
2018-11-03T14:23:20.640Z,30.40
2018-11-03T14:25:53.297Z,30.30
2018-11-03T14:28:24.520Z,30.20
2018-11-03T14:30:55.634Z,30.20
2018-11-03T14:33:26.594Z,30.20
2018-11-03T14:35:57.874Z,30.10
2018-11-03T14:38:28.797Z,30.00
2018-11-03T14:40:59.865Z,30.00
2018-11-03T14:43:30.800Z,30.00
2018-11-03T14:46:02.182Z,30.00
2018-11-03T14:48:33.132Z,30.00
2018-11-03T14:51:04.929Z,29.90
2018-11-03T14:53:35.938Z,29.90
2018-11-03T14:56:07.222Z,29.80
2018-11-03T14:58:38.160Z,29.80
2018-11-03T15:01:09.382Z,29.70
2018-11-03T15:03:41.079Z,29.70
2018-11-03T15:06:12.384Z,29.70
2018-11-03T15:08:43.375Z,29.60
2018-11-03T15:11:15.284Z,29.60
2018-11-03T15:13:46.329Z,29.60
2018-11-03T15:16:17.875Z,29.60
2018-11-03T15:18:56.293Z,29.60
2018-11-03T15:21:28.663Z,29.50
2018-11-03T15:23:59.660Z,29.50
2018-11-03T15:26:32.571Z,29.50
2018-11-03T15:29:03.667Z,29.40
2018-11-03T15:31:35.527Z,29.40
2018-11-03T15:34:07.420Z,29.40
2018-11-03T15:36:40.821Z,29.40
2018-11-03T15:39:12.622Z,29.40
2018-11-03T15:41:44.420Z,29.40
2018-11-03T15:44:16.340Z,29.30
2018-11-03T15:46:49.122Z,29.30
2018-11-03T15:49:21.117Z,29.30
2018-11-03T15:51:52.371Z,29.20
2018-11-03T15:54:24.104Z,29.10
2018-11-03T15:56:55.099Z,29.10
2018-11-03T15:59:26.067Z,29.10
2018-11-03T16:01:58.061Z,29.10
2018-11-03T16:04:29.520Z,29.00
2018-11-03T16:07:01.221Z,29.10
2018-11-03T16:09:32.364Z,28.90
2018-11-03T16:12:04.132Z,28.90
2018-11-03T16:14:35.484Z,28.80
2018-11-03T16:17:07.335Z,28.80
2018-11-03T16:19:38.725Z,28.80
2018-11-03T16:22:10.300Z,28.70
2018-11-03T16:24:41.669Z,28.80
2018-11-03T16:27:14.548Z,28.70
2018-11-03T16:29:45.816Z,28.70
2018-11-03T16:32:17.452Z,28.70
2018-11-03T16:34:48.748Z,28.60
2018-11-03T16:37:20.462Z,28.40
2018-11-03T16:39:51.774Z,28.40
2018-11-03T16:42:23.454Z,28.40
2018-11-03T16:44:54.578Z,28.30
2018-11-03T16:47:27.699Z,28.30
2018-11-03T16:49:58.963Z,28.30
2018-11-03T16:52:30.714Z,28.20
2018-11-03T16:55:02.139Z,28.20
2018-11-03T16:57:33.584Z,28.20
2018-11-03T17:00:04.964Z,28.10
2018-11-03T17:02:36.764Z,28.10
2018-11-03T17:05:08.668Z,28.10
2018-11-03T17:07:40.415Z,28.10
2018-11-03T17:10:15.093Z,28.00
2018-11-03T17:12:47.641Z,28.00
2018-11-03T17:15:19.216Z,28.00
2018-11-03T17:17:50.832Z,27.90
2018-11-03T17:20:22.272Z,27.90
2018-11-03T17:22:53.875Z,27.90
2018-11-03T17:25:25.487Z,28.00
2018-11-03T17:27:58.609Z,27.90
2018-11-03T17:30:30.070Z,27.80
2018-11-03T17:33:01.999Z,27.80
2018-11-03T17:35:32.986Z,27.70
2018-11-03T17:38:04.397Z,27.70
2018-11-03T17:40:35.125Z,27.80
2018-11-03T17:43:06.366Z,27.70
2018-11-03T17:45:37.032Z,27.70
2018-11-03T17:48:08.112Z,27.80
2018-11-03T17:50:39.042Z,27.70
2018-11-03T17:53:10.300Z,27.70
2018-11-03T17:55:41.036Z,27.70
2018-11-03T17:58:12.140Z,27.70
2018-11-03T18:00:44.192Z,27.70
2018-11-03T18:03:17.518Z,27.80
2018-11-03T18:05:48.716Z,27.80
2018-11-03T18:08:22.723Z,27.70
2018-11-03T18:10:54.132Z,27.70
2018-11-03T18:13:26.128Z,27.60
2018-11-03T18:15:57.073Z,27.60
2018-11-03T18:18:29.428Z,27.50
2018-11-03T18:21:00.596Z,27.50
2018-11-03T18:23:31.508Z,27.50
2018-11-03T18:26:02.199Z,27.50
2018-11-03T18:28:35.152Z,27.50
2018-11-03T18:31:06.540Z,27.40
2018-11-03T18:33:38.182Z,27.40
2018-11-03T18:36:09.412Z,27.30
2018-11-03T18:38:41.360Z,27.30
2018-11-03T18:41:12.371Z,27.30
2018-11-03T18:43:43.819Z,27.30
2018-11-03T18:46:14.961Z,27.20
2018-11-03T18:48:46.652Z,27.20
2018-11-03T18:51:17.860Z,27.20
2018-11-03T18:53:49.613Z,27.30
2018-11-03T18:56:20.707Z,27.40
2018-11-03T18:58:52.224Z,27.30
2018-11-03T19:01:23.296Z,27.20
2018-11-03T19:03:54.968Z,27.30
2018-11-03T19:06:26.079Z,27.20
2018-11-03T19:08:57.765Z,27.20
2018-11-03T19:11:28.960Z,27.20
2018-11-03T19:14:00.604Z,27.20
2018-11-03T19:16:31.679Z,27.20
2018-11-03T19:19:03.170Z,27.20
2018-11-03T19:21:34.404Z,27.10
2018-11-03T19:24:05.768Z,27.10
2018-11-03T19:26:37.209Z,27.10
2018-11-03T19:29:09.997Z,26.90
2018-11-03T19:31:41.234Z,26.80
2018-11-03T19:34:13.250Z,26.70
2018-11-03T19:36:44.316Z,26.80
2018-11-03T19:39:15.964Z,26.80
2018-11-03T19:41:47.219Z,26.70
2018-11-03T19:44:18.579Z,26.70
2018-11-03T19:46:49.804Z,26.70
2018-11-03T19:49:21.220Z,26.70
2018-11-03T19:51:52.418Z,26.70
2018-11-03T19:54:24.284Z,26.70
2018-11-03T19:56:56.098Z,26.70
2018-11-03T19:59:27.631Z,26.70
2018-11-03T20:01:59.044Z,26.70
2018-11-03T20:04:31.171Z,26.70
2018-11-03T20:07:02.381Z,26.70
2018-11-03T20:09:33.721Z,26.60
2018-11-03T20:12:05.016Z,26.50
2018-11-03T20:14:36.731Z,26.40
2018-11-03T20:17:08.060Z,26.40
2018-11-03T20:19:39.260Z,26.40
2018-11-03T20:22:10.516Z,26.40
2018-11-03T20:24:42.517Z,26.40
2018-11-03T20:27:14.433Z,26.40
2018-11-03T20:29:47.083Z,26.40
2018-11-03T20:32:18.052Z,26.40
2018-11-03T20:34:49.548Z,26.40
2018-11-03T20:37:20.603Z,26.30
2018-11-03T20:39:52.367Z,26.20
2018-11-03T20:42:23.401Z,26.20
2018-11-03T20:44:55.040Z,26.30
2018-11-03T20:47:26.008Z,26.30
2018-11-03T20:49:57.524Z,26.30
2018-11-03T20:52:28.652Z,26.20
2018-11-03T20:54:59.749Z,26.20
2018-11-03T20:57:31.131Z,26.10
2018-11-03T21:00:06.150Z,26.10
2018-11-03T21:02:37.376Z,26.00
2018-11-03T21:05:10.900Z,26.00
2018-11-03T21:07:42.768Z,25.90
2018-11-03T21:10:14.663Z,25.80
2018-11-03T21:12:46.009Z,25.90
2018-11-03T21:15:17.312Z,25.90
2018-11-03T21:17:48.557Z,25.90
2018-11-03T21:20:20.220Z,25.90
2018-11-03T21:22:51.560Z,25.80
2018-11-03T21:25:23.042Z,25.90
2018-11-03T21:27:54.239Z,25.80
2018-11-03T21:30:26.685Z,25.80
2018-11-03T21:32:58.031Z,25.80
2018-11-03T21:35:29.547Z,25.70
2018-11-03T21:38:00.672Z,25.70
2018-11-03T21:40:32.376Z,25.70
2018-11-03T21:43:05.910Z,25.70
2018-11-03T21:45:37.299Z,25.80
2018-11-03T21:48:09.145Z,25.70
2018-11-03T21:50:40.787Z,25.70
2018-11-03T21:53:11.939Z,25.70
2018-11-03T21:55:43.498Z,25.80
2018-11-03T21:58:14.552Z,25.80
2018-11-03T22:00:46.191Z,25.70
2018-11-03T22:03:17.336Z,25.70
2018-11-03T22:05:49.117Z,25.70
2018-11-03T22:08:20.212Z,25.60
2018-11-03T22:10:52.027Z,25.60
2018-11-03T22:13:23.016Z,25.60
2018-11-03T22:15:54.769Z,25.50
2018-11-03T22:18:26.032Z,25.50
2018-11-03T22:20:57.478Z,25.50
2018-11-03T22:23:28.505Z,25.40
2018-11-03T22:26:00.176Z,25.40
2018-11-03T22:28:31.334Z,25.30
2018-11-03T22:31:04.400Z,25.30
2018-11-03T22:33:35.417Z,25.30
2018-11-03T22:36:07.612Z,25.40
2018-11-03T22:38:39.047Z,25.30
2018-11-03T22:41:10.539Z,25.40
2018-11-03T22:43:41.931Z,25.30
2018-11-03T22:46:13.268Z,25.30
2018-11-03T22:48:44.615Z,25.30
2018-11-03T22:51:17.052Z,25.30
2018-11-03T22:53:48.269Z,25.20
2018-11-03T22:56:19.869Z,25.30
2018-11-03T22:58:51.021Z,25.30
2018-11-03T23:01:22.680Z,25.30
2018-11-03T23:03:53.755Z,25.30
2018-11-03T23:06:25.336Z,25.30
2018-11-03T23:08:56.526Z,25.30
2018-11-03T23:11:28.164Z,25.30
2018-11-03T23:13:59.428Z,25.40
2018-11-03T23:16:31.073Z,25.30
2018-11-03T23:19:02.236Z,25.40
2018-11-03T23:21:34.204Z,25.40
2018-11-03T23:24:05.297Z,25.30
2018-11-03T23:26:36.519Z,25.30
2018-11-03T23:29:07.633Z,25.20
2018-11-03T23:31:40.899Z,25.20
2018-11-03T23:34:12.148Z,25.20
2018-11-03T23:36:43.669Z,25.30
2018-11-03T23:39:14.825Z,25.20
2018-11-03T23:41:46.464Z,25.30
2018-11-03T23:44:17.616Z,25.20
2018-11-03T23:46:49.074Z,25.30
2018-11-03T23:49:20.141Z,25.40
2018-11-03T23:51:51.738Z,25.40
2018-11-03T23:54:23.176Z,25.40
2018-11-03T23:56:54.952Z,25.40
2018-11-03T23:59:26.164Z,25.50
